sensor_id;sensor_type;location;lat;lon;timestamp;P1;durP1;ratioP1;P2;durP2;ratioP2
27223;SDS011;14965;50.660;13.226;2023-07-13T00:00:39;16.58;;;5.53;;
27223;SDS011;14965;50.660;13.226;2023-07-13T00:03:06;10.38;;;5.57;;
27223;SDS011;14965;50.660;13.226;2023-07-13T00:05:32;12.93;;;5.10;;
27223;SDS011;14965;50.660;13.226;2023-07-13T00:07:58;8.20;;;3.80;;
27223;SDS011;14965;50.660;13.226;2023-07-13T00:10:23;7.63;;;2.78;;
27223;SDS011;14965;50.660;13.226;2023-07-13T00:12:49;10.27;;;3.72;;
27223;SDS011;14965;50.660;13.226;2023-07-13T00:15:16;6.10;;;3.70;;
27223;SDS011;14965;50.660;13.226;2023-07-13T00:17:45;8.02;;;3.55;;
27223;SDS011;14965;50.660;13.226;2023-07-13T00:20:12;6.00;;;4.03;;
27223;SDS011;14965;50.660;13.226;2023-07-13T00:22:38;9.20;;;4.75;;
27223;SDS011;14965;50.660;13.226;2023-07-13T00:25:05;7.90;;;4.03;;
27223;SDS011;14965;50.660;13.226;2023-07-13T00:27:31;6.53;;;3.45;;
27223;SDS011;14965;50.660;13.226;2023-07-13T00:29:57;5.53;;;3.50;;
27223;SDS011;14965;50.660;13.226;2023-07-13T00:32:23;8.02;;;3.90;;
27223;SDS011;14965;50.660;13.226;2023-07-13T00:34:50;5.70;;;3.67;;
27223;SDS011;14965;50.660;13.226;2023-07-13T00:37:17;6.07;;;3.80;;
27223;SDS011;14965;50.660;13.226;2023-07-13T00:39:43;6.15;;;4.20;;
27223;SDS011;14965;50.660;13.226;2023-07-13T00:42:09;9.48;;;4.50;;
27223;SDS011;14965;50.660;13.226;2023-07-13T00:44:35;10.02;;;4.63;;
27223;SDS011;14965;50.660;13.226;2023-07-13T00:47:01;10.02;;;5.20;;
27223;SDS011;14965;50.660;13.226;2023-07-13T00:49:27;11.68;;;5.15;;
27223;SDS011;14965;50.660;13.226;2023-07-13T00:51:58;8.93;;;5.15;;
27223;SDS011;14965;50.660;13.226;2023-07-13T00:54:31;10.63;;;5.00;;
27223;SDS011;14965;50.660;13.226;2023-07-13T00:57:02;10.18;;;5.00;;
27223;SDS011;14965;50.660;13.226;2023-07-13T00:59:33;6.90;;;4.80;;
27223;SDS011;14965;50.660;13.226;2023-07-13T01:02:01;7.22;;;5.22;;
27223;SDS011;14965;50.660;13.226;2023-07-13T01:04:27;8.13;;;4.60;;
27223;SDS011;14965;50.660;13.226;2023-07-13T01:06:53;6.70;;;4.45;;
27223;SDS011;14965;50.660;13.226;2023-07-13T01:09:20;9.98;;;4.90;;
27223;SDS011;14965;50.660;13.226;2023-07-13T01:11:47;8.75;;;4.78;;
27223;SDS011;14965;50.660;13.226;2023-07-13T01:14:13;9.52;;;5.30;;
27223;SDS011;14965;50.660;13.226;2023-07-13T01:16:40;7.95;;;5.28;;
27223;SDS011;14965;50.660;13.226;2023-07-13T01:19:10;9.40;;;4.97;;
27223;SDS011;14965;50.660;13.226;2023-07-13T01:21:51;8.50;;;5.78;;
27223;SDS011;14965;50.660;13.226;2023-07-13T01:24:18;8.60;;;5.15;;
27223;SDS011;14965;50.660;13.226;2023-07-13T01:26:43;10.35;;;5.30;;
27223;SDS011;14965;50.660;13.226;2023-07-13T01:29:09;9.02;;;5.28;;
27223;SDS011;14965;50.660;13.226;2023-07-13T01:31:35;9.40;;;5.13;;
27223;SDS011;14965;50.660;13.226;2023-07-13T01:34:01;6.55;;;4.65;;
27223;SDS011;14965;50.660;13.226;2023-07-13T01:36:27;9.45;;;4.80;;
27223;SDS011;14965;50.660;13.226;2023-07-13T01:38:54;8.68;;;5.22;;
27223;SDS011;14965;50.660;13.226;2023-07-13T01:41:20;7.53;;;5.03;;
27223;SDS011;14965;50.660;13.226;2023-07-13T01:43:46;8.98;;;4.65;;
27223;SDS011;14965;50.660;13.226;2023-07-13T01:46:11;11.50;;;6.00;;
27223;SDS011;14965;50.660;13.226;2023-07-13T01:48:37;7.53;;;5.10;;
27223;SDS011;14965;50.660;13.226;2023-07-13T01:51:03;9.43;;;5.40;;
27223;SDS011;14965;50.660;13.226;2023-07-13T01:53:29;7.55;;;4.82;;
27223;SDS011;14965;50.660;13.226;2023-07-13T01:55:56;8.45;;;5.10;;
27223;SDS011;14965;50.660;13.226;2023-07-13T01:58:22;8.23;;;4.90;;
27223;SDS011;14965;50.660;13.226;2023-07-13T02:00:48;7.10;;;4.80;;
27223;SDS011;14965;50.660;13.226;2023-07-13T02:03:14;9.43;;;4.88;;
27223;SDS011;14965;50.660;13.226;2023-07-13T02:05:40;6.32;;;4.68;;
27223;SDS011;14965;50.660;13.226;2023-07-13T02:08:06;10.75;;;5.25;;
27223;SDS011;14965;50.660;13.226;2023-07-13T02:10:32;7.28;;;4.97;;
27223;SDS011;14965;50.660;13.226;2023-07-13T02:12:59;7.53;;;4.80;;
27223;SDS011;14965;50.660;13.226;2023-07-13T02:15:25;8.77;;;5.90;;
27223;SDS011;14965;50.660;13.226;2023-07-13T02:17:51;11.45;;;7.05;;
27223;SDS011;14965;50.660;13.226;2023-07-13T02:20:17;7.78;;;5.70;;
27223;SDS011;14965;50.660;13.226;2023-07-13T02:22:43;7.25;;;5.38;;
27223;SDS011;14965;50.660;13.226;2023-07-13T02:25:08;5.93;;;5.28;;
27223;SDS011;14965;50.660;13.226;2023-07-13T02:27:34;9.13;;;4.82;;
27223;SDS011;14965;50.660;13.226;2023-07-13T02:30:02;9.15;;;4.97;;
27223;SDS011;14965;50.660;13.226;2023-07-13T02:32:28;8.32;;;5.10;;
27223;SDS011;14965;50.660;13.226;2023-07-13T02:34:54;10.23;;;5.18;;
27223;SDS011;14965;50.660;13.226;2023-07-13T02:37:20;7.72;;;5.13;;
27223;SDS011;14965;50.660;13.226;2023-07-13T02:39:46;8.45;;;5.55;;
27223;SDS011;14965;50.660;13.226;2023-07-13T02:42:12;6.15;;;4.82;;
27223;SDS011;14965;50.660;13.226;2023-07-13T02:44:38;8.40;;;5.82;;
27223;SDS011;14965;50.660;13.226;2023-07-13T02:47:05;11.40;;;5.85;;
27223;SDS011;14965;50.660;13.226;2023-07-13T02:49:31;7.45;;;5.50;;
27223;SDS011;14965;50.660;13.226;2023-07-13T02:51:57;7.85;;;5.07;;
27223;SDS011;14965;50.660;13.226;2023-07-13T02:54:23;8.02;;;5.68;;
27223;SDS011;14965;50.660;13.226;2023-07-13T02:56:49;6.43;;;5.03;;
27223;SDS011;14965;50.660;13.226;2023-07-13T02:59:15;5.68;;;4.35;;
27223;SDS011;14965;50.660;13.226;2023-07-13T03:01:40;7.13;;;4.20;;
27223;SDS011;14965;50.660;13.226;2023-07-13T03:04:08;5.93;;;4.43;;
27223;SDS011;14965;50.660;13.226;2023-07-13T03:06:34;7.18;;;4.63;;
27223;SDS011;14965;50.660;13.226;2023-07-13T03:09:00;8.55;;;5.57;;
27223;SDS011;14965;50.660;13.226;2023-07-13T03:11:26;10.75;;;5.55;;
27223;SDS011;14965;50.660;13.226;2023-07-13T03:13:52;10.65;;;5.50;;
27223;SDS011;14965;50.660;13.226;2023-07-13T03:16:18;9.50;;;5.88;;
27223;SDS011;14965;50.660;13.226;2023-07-13T03:18:45;10.45;;;5.75;;
27223;SDS011;14965;50.660;13.226;2023-07-13T03:21:13;8.65;;;5.72;;
27223;SDS011;14965;50.660;13.226;2023-07-13T03:23:40;10.35;;;6.03;;
27223;SDS011;14965;50.660;13.226;2023-07-13T03:26:07;6.93;;;5.80;;
27223;SDS011;14965;50.660;13.226;2023-07-13T03:28:36;6.72;;;5.80;;
27223;SDS011;14965;50.660;13.226;2023-07-13T03:31:02;11.27;;;6.18;;
27223;SDS011;14965;50.660;13.226;2023-07-13T03:33:32;9.48;;;5.90;;
27223;SDS011;14965;50.660;13.226;2023-07-13T03:35:58;9.75;;;5.85;;
27223;SDS011;14965;50.660;13.226;2023-07-13T03:38:25;10.35;;;5.30;;
27223;SDS011;14965;50.660;13.226;2023-07-13T03:40:51;9.40;;;5.45;;
27223;SDS011;14965;50.660;13.226;2023-07-13T03:43:17;9.95;;;5.45;;
27223;SDS011;14965;50.660;13.226;2023-07-13T03:45:43;6.00;;;4.95;;
27223;SDS011;14965;50.660;13.226;2023-07-13T03:48:09;8.30;;;5.00;;
27223;SDS011;14965;50.660;13.226;2023-07-13T03:50:35;8.35;;;5.72;;
27223;SDS011;14965;50.660;13.226;2023-07-13T03:53:01;6.15;;;5.55;;
27223;SDS011;14965;50.660;13.226;2023-07-13T03:55:28;8.13;;;4.80;;
27223;SDS011;14965;50.660;13.226;2023-07-13T03:57:58;9.57;;;5.65;;
27223;SDS011;14965;50.660;13.226;2023-07-13T04:00:44;6.50;;;4.97;;
27223;SDS011;14965;50.660;13.226;2023-07-13T04:03:10;7.20;;;6.40;;
27223;SDS011;14965;50.660;13.226;2023-07-13T04:05:36;9.30;;;6.63;;
27223;SDS011;14965;50.660;13.226;2023-07-13T04:08:03;6.72;;;5.70;;
27223;SDS011;14965;50.660;13.226;2023-07-13T04:10:31;7.25;;;5.93;;
27223;SDS011;14965;50.660;13.226;2023-07-13T04:12:56;10.65;;;6.40;;
27223;SDS011;14965;50.660;13.226;2023-07-13T04:15:22;6.20;;;5.60;;
27223;SDS011;14965;50.660;13.226;2023-07-13T04:17:48;7.32;;;5.47;;
27223;SDS011;14965;50.660;13.226;2023-07-13T04:20:14;6.32;;;5.20;;
27223;SDS011;14965;50.660;13.226;2023-07-13T04:22:40;7.55;;;5.00;;
27223;SDS011;14965;50.660;13.226;2023-07-13T04:25:06;6.32;;;5.03;;
27223;SDS011;14965;50.660;13.226;2023-07-13T04:27:34;7.40;;;5.00;;
27223;SDS011;14965;50.660;13.226;2023-07-13T04:30:00;8.45;;;5.40;;
27223;SDS011;14965;50.660;13.226;2023-07-13T04:32:26;7.85;;;5.38;;
27223;SDS011;14965;50.660;13.226;2023-07-13T04:34:51;5.68;;;4.50;;
27223;SDS011;14965;50.660;13.226;2023-07-13T04:37:17;5.57;;;4.93;;
27223;SDS011;14965;50.660;13.226;2023-07-13T04:39:43;5.40;;;4.60;;
27223;SDS011;14965;50.660;13.226;2023-07-13T04:42:09;10.35;;;4.82;;
27223;SDS011;14965;50.660;13.226;2023-07-13T04:44:36;5.00;;;4.50;;
27223;SDS011;14965;50.660;13.226;2023-07-13T04:47:02;8.68;;;4.38;;
27223;SDS011;14965;50.660;13.226;2023-07-13T04:49:29;7.85;;;5.03;;
27223;SDS011;14965;50.660;13.226;2023-07-13T04:51:55;5.72;;;4.32;;
27223;SDS011;14965;50.660;13.226;2023-07-13T04:54:20;10.48;;;5.75;;
27223;SDS011;14965;50.660;13.226;2023-07-13T04:56:46;7.10;;;4.70;;
27223;SDS011;14965;50.660;13.226;2023-07-13T04:59:12;5.15;;;3.85;;
27223;SDS011;14965;50.660;13.226;2023-07-13T05:01:40;5.28;;;4.05;;
27223;SDS011;14965;50.660;13.226;2023-07-13T05:04:06;5.93;;;3.75;;
27223;SDS011;14965;50.660;13.226;2023-07-13T05:06:31;4.28;;;3.63;;
27223;SDS011;14965;50.660;13.226;2023-07-13T05:08:58;5.95;;;3.92;;
27223;SDS011;14965;50.660;13.226;2023-07-13T05:11:24;5.25;;;3.33;;
27223;SDS011;14965;50.660;13.226;2023-07-13T05:13:50;5.18;;;3.50;;
27223;SDS011;14965;50.660;13.226;2023-07-13T05:16:15;5.97;;;3.80;;
27223;SDS011;14965;50.660;13.226;2023-07-13T05:18:43;4.53;;;3.58;;
27223;SDS011;14965;50.660;13.226;2023-07-13T05:21:09;5.38;;;3.40;;
27223;SDS011;14965;50.660;13.226;2023-07-13T05:23:36;5.97;;;3.70;;
27223;SDS011;14965;50.660;13.226;2023-07-13T05:26:03;5.28;;;3.20;;
27223;SDS011;14965;50.660;13.226;2023-07-13T05:28:30;4.47;;;3.25;;
27223;SDS011;14965;50.660;13.226;2023-07-13T05:30:56;5.75;;;3.30;;
27223;SDS011;14965;50.660;13.226;2023-07-13T05:33:22;4.35;;;3.15;;
27223;SDS011;14965;50.660;13.226;2023-07-13T05:35:50;4.00;;;3.03;;
27223;SDS011;14965;50.660;13.226;2023-07-13T05:38:16;5.82;;;3.40;;
27223;SDS011;14965;50.660;13.226;2023-07-13T05:40:43;4.57;;;3.30;;
27223;SDS011;14965;50.660;13.226;2023-07-13T05:43:09;6.15;;;3.60;;
27223;SDS011;14965;50.660;13.226;2023-07-13T05:45:36;7.80;;;3.78;;
27223;SDS011;14965;50.660;13.226;2023-07-13T05:48:01;7.72;;;3.90;;
27223;SDS011;14965;50.660;13.226;2023-07-13T05:50:27;5.35;;;4.10;;
27223;SDS011;14965;50.660;13.226;2023-07-13T05:52:55;5.05;;;3.88;;
27223;SDS011;14965;50.660;13.226;2023-07-13T05:55:20;11.02;;;4.38;;
27223;SDS011;14965;50.660;13.226;2023-07-13T05:57:46;6.45;;;4.10;;
27223;SDS011;14965;50.660;13.226;2023-07-13T06:00:13;8.40;;;4.25;;
27223;SDS011;14965;50.660;13.226;2023-07-13T06:02:40;4.53;;;3.70;;
27223;SDS011;14965;50.660;13.226;2023-07-13T06:05:06;6.70;;;3.90;;
27223;SDS011;14965;50.660;13.226;2023-07-13T06:07:33;6.60;;;4.28;;
27223;SDS011;14965;50.660;13.226;2023-07-13T06:10:00;7.95;;;4.05;;
27223;SDS011;14965;50.660;13.226;2023-07-13T06:12:27;6.85;;;3.63;;
27223;SDS011;14965;50.660;13.226;2023-07-13T06:14:53;6.65;;;3.40;;
27223;SDS011;14965;50.660;13.226;2023-07-13T06:17:18;5.30;;;3.20;;
27223;SDS011;14965;50.660;13.226;2023-07-13T06:19:44;5.15;;;3.20;;
27223;SDS011;14965;50.660;13.226;2023-07-13T06:22:10;6.45;;;3.30;;
27223;SDS011;14965;50.660;13.226;2023-07-13T06:24:36;5.63;;;3.28;;
27223;SDS011;14965;50.660;13.226;2023-07-13T06:27:04;6.50;;;3.65;;
27223;SDS011;14965;50.660;13.226;2023-07-13T06:29:30;5.30;;;3.13;;
27223;SDS011;14965;50.660;13.226;2023-07-13T06:31:56;5.28;;;3.28;;
27223;SDS011;14965;50.660;13.226;2023-07-13T06:34:22;6.25;;;3.80;;
27223;SDS011;14965;50.660;13.226;2023-07-13T06:36:48;4.35;;;3.60;;
27223;SDS011;14965;50.660;13.226;2023-07-13T06:39:14;5.75;;;3.40;;
27223;SDS011;14965;50.660;13.226;2023-07-13T06:41:40;5.32;;;3.28;;
27223;SDS011;14965;50.660;13.226;2023-07-13T06:44:07;5.03;;;3.40;;
27223;SDS011;14965;50.660;13.226;2023-07-13T06:46:33;7.25;;;3.92;;
27223;SDS011;14965;50.660;13.226;2023-07-13T06:48:58;5.40;;;3.53;;
27223;SDS011;14965;50.660;13.226;2023-07-13T06:51:24;7.47;;;3.60;;
27223;SDS011;14965;50.660;13.226;2023-07-13T06:53:50;8.32;;;3.60;;
27223;SDS011;14965;50.660;13.226;2023-07-13T06:56:16;8.80;;;3.40;;
27223;SDS011;14965;50.660;13.226;2023-07-13T06:58:42;5.15;;;2.95;;
27223;SDS011;14965;50.660;13.226;2023-07-13T07:01:09;4.28;;;3.53;;
27223;SDS011;14965;50.660;13.226;2023-07-13T07:03:35;5.60;;;3.10;;
27223;SDS011;14965;50.660;13.226;2023-07-13T07:06:01;6.65;;;3.60;;
27223;SDS011;14965;50.660;13.226;2023-07-13T07:08:37;5.93;;;3.30;;
27223;SDS011;14965;50.660;13.226;2023-07-13T07:11:02;4.10;;;2.95;;
27223;SDS011;14965;50.660;13.226;2023-07-13T07:13:28;4.38;;;3.08;;
27223;SDS011;14965;50.660;13.226;2023-07-13T07:15:54;6.30;;;3.33;;
27223;SDS011;14965;50.660;13.226;2023-07-13T07:18:21;5.57;;;2.90;;
27223;SDS011;14965;50.660;13.226;2023-07-13T07:20:48;5.20;;;2.90;;
27223;SDS011;14965;50.660;13.226;2023-07-13T07:23:14;5.88;;;2.88;;
27223;SDS011;14965;50.660;13.226;2023-07-13T07:25:40;5.22;;;2.53;;
27223;SDS011;14965;50.660;13.226;2023-07-13T07:28:08;3.53;;;2.35;;
27223;SDS011;14965;50.660;13.226;2023-07-13T07:30:34;5.85;;;2.80;;
27223;SDS011;14965;50.660;13.226;2023-07-13T07:33:00;4.80;;;3.05;;
27223;SDS011;14965;50.660;13.226;2023-07-13T07:35:27;5.75;;;2.60;;
27223;SDS011;14965;50.660;13.226;2023-07-13T07:37:53;5.55;;;3.10;;
27223;SDS011;14965;50.660;13.226;2023-07-13T07:40:19;4.13;;;2.83;;
27223;SDS011;14965;50.660;13.226;2023-07-13T07:42:45;4.93;;;2.90;;
27223;SDS011;14965;50.660;13.226;2023-07-13T07:45:11;5.22;;;2.58;;
27223;SDS011;14965;50.660;13.226;2023-07-13T07:47:37;5.22;;;2.45;;
27223;SDS011;14965;50.660;13.226;2023-07-13T07:50:03;5.25;;;2.50;;
27223;SDS011;14965;50.660;13.226;2023-07-13T07:52:31;5.28;;;2.75;;
27223;SDS011;14965;50.660;13.226;2023-07-13T07:54:56;7.05;;;2.65;;
27223;SDS011;14965;50.660;13.226;2023-07-13T07:57:29;6.47;;;2.47;;
27223;SDS011;14965;50.660;13.226;2023-07-13T07:59:55;3.55;;;2.00;;
27223;SDS011;14965;50.660;13.226;2023-07-13T08:02:20;4.75;;;2.45;;
27223;SDS011;14965;50.660;13.226;2023-07-13T08:04:46;5.57;;;2.70;;
27223;SDS011;14965;50.660;13.226;2023-07-13T08:07:12;6.15;;;2.47;;
27223;SDS011;14965;50.660;13.226;2023-07-13T08:09:39;5.35;;;2.75;;
27223;SDS011;14965;50.660;13.226;2023-07-13T08:12:05;9.15;;;3.25;;
27223;SDS011;14965;50.660;13.226;2023-07-13T08:14:32;7.35;;;3.00;;
27223;SDS011;14965;50.660;13.226;2023-07-13T08:16:58;4.25;;;2.67;;
27223;SDS011;14965;50.660;13.226;2023-07-13T08:19:24;6.30;;;3.00;;
27223;SDS011;14965;50.660;13.226;2023-07-13T08:21:50;4.55;;;2.67;;
27223;SDS011;14965;50.660;13.226;2023-07-13T08:24:16;4.80;;;2.50;;
27223;SDS011;14965;50.660;13.226;2023-07-13T08:26:43;4.88;;;2.20;;
27223;SDS011;14965;50.660;13.226;2023-07-13T08:29:09;5.75;;;2.15;;
27223;SDS011;14965;50.660;13.226;2023-07-13T08:31:35;4.32;;;2.15;;
27223;SDS011;14965;50.660;13.226;2023-07-13T08:34:01;7.05;;;2.45;;
27223;SDS011;14965;50.660;13.226;2023-07-13T08:36:27;4.43;;;2.17;;
27223;SDS011;14965;50.660;13.226;2023-07-13T08:38:54;4.35;;;2.00;;
27223;SDS011;14965;50.660;13.226;2023-07-13T08:41:20;4.90;;;2.15;;
27223;SDS011;14965;50.660;13.226;2023-07-13T08:43:49;5.28;;;1.95;;
27223;SDS011;14965;50.660;13.226;2023-07-13T08:46:23;6.38;;;1.77;;
27223;SDS011;14965;50.660;13.226;2023-07-13T08:48:53;4.65;;;1.90;;
27223;SDS011;14965;50.660;13.226;2023-07-13T08:51:26;4.05;;;1.88;;
27223;SDS011;14965;50.660;13.226;2023-07-13T08:54:04;6.65;;;2.20;;
27223;SDS011;14965;50.660;13.226;2023-07-13T08:56:43;5.38;;;2.10;;
27223;SDS011;14965;50.660;13.226;2023-07-13T08:59:13;5.40;;;1.83;;
27223;SDS011;14965;50.660;13.226;2023-07-13T09:01:47;4.55;;;2.20;;
27223;SDS011;14965;50.660;13.226;2023-07-13T09:04:36;8.00;;;2.00;;
27223;SDS011;14965;50.660;13.226;2023-07-13T09:07:11;6.10;;;1.85;;
27223;SDS011;14965;50.660;13.226;2023-07-13T09:09:55;4.05;;;1.90;;
27223;SDS011;14965;50.660;13.226;2023-07-13T09:12:40;5.00;;;1.75;;
27223;SDS011;14965;50.660;13.226;2023-07-13T09:15:27;4.85;;;2.15;;
27223;SDS011;14965;50.660;13.226;2023-07-13T09:17:57;4.57;;;2.10;;
27223;SDS011;14965;50.660;13.226;2023-07-13T09:20:34;9.18;;;2.40;;
27223;SDS011;14965;50.660;13.226;2023-07-13T09:23:09;3.38;;;1.75;;
27223;SDS011;14965;50.660;13.226;2023-07-13T09:25:41;5.43;;;2.25;;
27223;SDS011;14965;50.660;13.226;2023-07-13T09:28:15;4.88;;;2.00;;
27223;SDS011;14965;50.660;13.226;2023-07-13T09:30:50;4.13;;;2.10;;
27223;SDS011;14965;50.660;13.226;2023-07-13T09:33:23;7.13;;;2.10;;
27223;SDS011;14965;50.660;13.226;2023-07-13T09:35:49;9.27;;;2.15;;
27223;SDS011;14965;50.660;13.226;2023-07-13T09:38:16;6.28;;;2.08;;
27223;SDS011;14965;50.660;13.226;2023-07-13T09:40:51;7.13;;;2.05;;
27223;SDS011;14965;50.660;13.226;2023-07-13T09:43:29;5.50;;;1.88;;
27223;SDS011;14965;50.660;13.226;2023-07-13T09:45:56;6.90;;;1.77;;
27223;SDS011;14965;50.660;13.226;2023-07-13T09:50:49;4.88;;;1.88;;
27223;SDS011;14965;50.660;13.226;2023-07-13T09:53:20;5.68;;;2.03;;
27223;SDS011;14965;50.660;13.226;2023-07-13T09:55:46;8.85;;;2.05;;
27223;SDS011;14965;50.660;13.226;2023-07-13T09:58:14;6.20;;;1.98;;
27223;SDS011;14965;50.660;13.226;2023-07-13T10:00:43;4.82;;;1.73;;
27223;SDS011;14965;50.660;13.226;2023-07-13T10:03:22;7.45;;;2.00;;
27223;SDS011;14965;50.660;13.226;2023-07-13T10:05:51;3.35;;;1.67;;
27223;SDS011;14965;50.660;13.226;2023-07-13T10:08:20;6.15;;;1.95;;
27223;SDS011;14965;50.660;13.226;2023-07-13T10:10:52;3.83;;;1.92;;
27223;SDS011;14965;50.660;13.226;2023-07-13T10:13:24;5.50;;;1.90;;
27223;SDS011;14965;50.660;13.226;2023-07-13T10:15:56;4.63;;;2.10;;
27223;SDS011;14965;50.660;13.226;2023-07-13T10:18:26;11.02;;;2.67;;
27223;SDS011;14965;50.660;13.226;2023-07-13T10:20:54;6.88;;;2.80;;
27223;SDS011;14965;50.660;13.226;2023-07-13T10:23:37;4.07;;;2.03;;
27223;SDS011;14965;50.660;13.226;2023-07-13T10:26:04;4.25;;;2.17;;
27223;SDS011;14965;50.660;13.226;2023-07-13T10:28:41;3.25;;;1.85;;
27223;SDS011;14965;50.660;13.226;2023-07-13T10:31:13;5.47;;;1.90;;
27223;SDS011;14965;50.660;13.226;2023-07-13T10:33:42;6.50;;;2.03;;
27223;SDS011;14965;50.660;13.226;2023-07-13T10:36:12;4.65;;;2.00;;
27223;SDS011;14965;50.660;13.226;2023-07-13T10:38:48;6.88;;;2.03;;
27223;SDS011;14965;50.660;13.226;2023-07-13T10:41:18;4.40;;;2.00;;
27223;SDS011;14965;50.660;13.226;2023-07-13T10:43:48;6.32;;;2.10;;
27223;SDS011;14965;50.660;13.226;2023-07-13T10:46:21;4.15;;;1.90;;
27223;SDS011;14965;50.660;13.226;2023-07-13T10:48:52;4.45;;;1.70;;
27223;SDS011;14965;50.660;13.226;2023-07-13T10:51:24;4.18;;;1.77;;
27223;SDS011;14965;50.660;13.226;2023-07-13T10:54:11;3.40;;;1.60;;
27223;SDS011;14965;50.660;13.226;2023-07-13T10:56:43;4.25;;;1.70;;
27223;SDS011;14965;50.660;13.226;2023-07-13T10:59:12;9.33;;;2.00;;
27223;SDS011;14965;50.660;13.226;2023-07-13T11:01:50;5.38;;;1.90;;
27223;SDS011;14965;50.660;13.226;2023-07-13T11:04:22;4.60;;;1.88;;
27223;SDS011;14965;50.660;13.226;2023-07-13T11:06:51;3.72;;;1.90;;
27223;SDS011;14965;50.660;13.226;2023-07-13T11:09:33;7.38;;;2.00;;
27223;SDS011;14965;50.660;13.226;2023-07-13T11:12:06;6.47;;;1.90;;
27223;SDS011;14965;50.660;13.226;2023-07-13T11:15:04;10.93;;;2.30;;
27223;SDS011;14965;50.660;13.226;2023-07-13T11:17:37;7.10;;;2.10;;
27223;SDS011;14965;50.660;13.226;2023-07-13T11:20:30;5.93;;;2.00;;
27223;SDS011;14965;50.660;13.226;2023-07-13T11:23:08;8.02;;;2.10;;
27223;SDS011;14965;50.660;13.226;2023-07-13T11:25:45;5.45;;;2.13;;
27223;SDS011;14965;50.660;13.226;2023-07-13T11:28:15;7.30;;;2.20;;
27223;SDS011;14965;50.660;13.226;2023-07-13T11:30:48;5.35;;;1.80;;
27223;SDS011;14965;50.660;13.226;2023-07-13T11:36:18;5.85;;;2.20;;
27223;SDS011;14965;50.660;13.226;2023-07-13T11:38:51;8.82;;;2.10;;
27223;SDS011;14965;50.660;13.226;2023-07-13T11:41:26;6.10;;;1.83;;
27223;SDS011;14965;50.660;13.226;2023-07-13T11:44:05;5.63;;;2.30;;
27223;SDS011;14965;50.660;13.226;2023-07-13T11:46:37;5.00;;;2.05;;
27223;SDS011;14965;50.660;13.226;2023-07-13T11:49:04;7.10;;;2.22;;
27223;SDS011;14965;50.660;13.226;2023-07-13T11:51:33;8.63;;;2.50;;
27223;SDS011;14965;50.660;13.226;2023-07-13T11:54:03;4.90;;;2.10;;
27223;SDS011;14965;50.660;13.226;2023-07-13T11:56:38;4.68;;;2.20;;
27223;SDS011;14965;50.660;13.226;2023-07-13T11:59:07;6.80;;;2.20;;
27223;SDS011;14965;50.660;13.226;2023-07-13T12:01:41;6.70;;;2.20;;
27223;SDS011;14965;50.660;13.226;2023-07-13T12:04:18;6.68;;;2.10;;
27223;SDS011;14965;50.660;13.226;2023-07-13T12:06:58;3.92;;;2.10;;
27223;SDS011;14965;50.660;13.226;2023-07-13T12:09:33;4.55;;;1.83;;
27223;SDS011;14965;50.660;13.226;2023-07-13T12:11:59;7.75;;;2.17;;
27223;SDS011;14965;50.660;13.226;2023-07-13T12:14:25;7.20;;;1.88;;
27223;SDS011;14965;50.660;13.226;2023-07-13T12:16:51;5.22;;;1.80;;
27223;SDS011;14965;50.660;13.226;2023-07-13T12:19:18;7.88;;;2.13;;
27223;SDS011;14965;50.660;13.226;2023-07-13T12:21:48;3.78;;;2.00;;
27223;SDS011;14965;50.660;13.226;2023-07-13T12:24:18;3.90;;;2.00;;
27223;SDS011;14965;50.660;13.226;2023-07-13T12:26:50;7.38;;;2.05;;
27223;SDS011;14965;50.660;13.226;2023-07-13T12:29:17;4.38;;;2.13;;
27223;SDS011;14965;50.660;13.226;2023-07-13T12:31:44;10.27;;;2.08;;
27223;SDS011;14965;50.660;13.226;2023-07-13T12:34:13;5.07;;;1.98;;
27223;SDS011;14965;50.660;13.226;2023-07-13T12:36:45;3.80;;;1.70;;
27223;SDS011;14965;50.660;13.226;2023-07-13T12:39:14;9.80;;;2.20;;
27223;SDS011;14965;50.660;13.226;2023-07-13T12:41:47;10.30;;;2.10;;
27223;SDS011;14965;50.660;13.226;2023-07-13T12:44:16;8.35;;;2.00;;
27223;SDS011;14965;50.660;13.226;2023-07-13T12:46:51;8.23;;;1.83;;
27223;SDS011;14965;50.660;13.226;2023-07-13T12:49:26;5.65;;;2.10;;
27223;SDS011;14965;50.660;13.226;2023-07-13T12:51:56;5.03;;;1.73;;
27223;SDS011;14965;50.660;13.226;2023-07-13T12:54:25;6.43;;;2.13;;
27223;SDS011;14965;50.660;13.226;2023-07-13T12:56:53;6.93;;;1.98;;
27223;SDS011;14965;50.660;13.226;2023-07-13T12:59:22;5.07;;;1.73;;
27223;SDS011;14965;50.660;13.226;2023-07-13T13:01:54;6.40;;;2.00;;
27223;SDS011;14965;50.660;13.226;2023-07-13T13:04:20;6.68;;;1.50;;
27223;SDS011;14965;50.660;13.226;2023-07-13T13:06:47;6.22;;;1.70;;
27223;SDS011;14965;50.660;13.226;2023-07-13T13:09:15;7.07;;;2.15;;
27223;SDS011;14965;50.660;13.226;2023-07-13T13:11:44;4.35;;;1.70;;
27223;SDS011;14965;50.660;13.226;2023-07-13T13:14:10;5.82;;;1.73;;
27223;SDS011;14965;50.660;13.226;2023-07-13T13:16:37;6.30;;;2.00;;
27223;SDS011;14965;50.660;13.226;2023-07-13T13:19:13;5.55;;;2.00;;
27223;SDS011;14965;50.660;13.226;2023-07-13T13:21:42;4.75;;;1.88;;
27223;SDS011;14965;50.660;13.226;2023-07-13T13:24:13;5.00;;;2.00;;
27223;SDS011;14965;50.660;13.226;2023-07-13T13:26:41;3.05;;;1.55;;
27223;SDS011;14965;50.660;13.226;2023-07-13T13:29:11;5.55;;;1.88;;
27223;SDS011;14965;50.660;13.226;2023-07-13T13:31:39;5.28;;;1.80;;
27223;SDS011;14965;50.660;13.226;2023-07-13T13:34:07;5.90;;;1.65;;
27223;SDS011;14965;50.660;13.226;2023-07-13T13:36:35;3.80;;;1.60;;
27223;SDS011;14965;50.660;13.226;2023-07-13T13:39:01;3.90;;;1.98;;
27223;SDS011;14965;50.660;13.226;2023-07-13T13:41:27;4.82;;;1.70;;
27223;SDS011;14965;50.660;13.226;2023-07-13T13:43:55;2.55;;;1.65;;
27223;SDS011;14965;50.660;13.226;2023-07-13T13:46:22;4.25;;;2.00;;
27223;SDS011;14965;50.660;13.226;2023-07-13T13:48:50;5.70;;;1.60;;
27223;SDS011;14965;50.660;13.226;2023-07-13T13:51:17;7.78;;;1.80;;
27223;SDS011;14965;50.660;13.226;2023-07-13T13:53:45;5.38;;;1.67;;
27223;SDS011;14965;50.660;13.226;2023-07-13T13:56:12;4.47;;;2.00;;
27223;SDS011;14965;50.660;13.226;2023-07-13T13:58:42;6.30;;;1.88;;
27223;SDS011;14965;50.660;13.226;2023-07-13T14:01:14;6.15;;;1.85;;
27223;SDS011;14965;50.660;13.226;2023-07-13T14:03:44;7.85;;;1.90;;
27223;SDS011;14965;50.660;13.226;2023-07-13T14:06:11;5.20;;;2.00;;
27223;SDS011;14965;50.660;13.226;2023-07-13T14:08:37;5.53;;;2.20;;
27223;SDS011;14965;50.660;13.226;2023-07-13T14:11:03;5.88;;;1.90;;
27223;SDS011;14965;50.660;13.226;2023-07-13T14:13:31;5.03;;;1.73;;
27223;SDS011;14965;50.660;13.226;2023-07-13T14:16:04;5.97;;;1.90;;
27223;SDS011;14965;50.660;13.226;2023-07-13T14:18:37;7.80;;;2.90;;
27223;SDS011;14965;50.660;13.226;2023-07-13T14:21:04;4.75;;;1.70;;
27223;SDS011;14965;50.660;13.226;2023-07-13T14:23:38;3.78;;;1.92;;
27223;SDS011;14965;50.660;13.226;2023-07-13T14:26:06;3.80;;;1.73;;
27223;SDS011;14965;50.660;13.226;2023-07-13T14:28:37;7.65;;;1.85;;
27223;SDS011;14965;50.660;13.226;2023-07-13T14:31:07;5.57;;;1.80;;
27223;SDS011;14965;50.660;13.226;2023-07-13T14:33:34;6.00;;;1.98;;
27223;SDS011;14965;50.660;13.226;2023-07-13T14:36:01;5.63;;;1.83;;
27223;SDS011;14965;50.660;13.226;2023-07-13T14:38:27;4.07;;;1.92;;
27223;SDS011;14965;50.660;13.226;2023-07-13T14:40:53;4.63;;;1.80;;
27223;SDS011;14965;50.660;13.226;2023-07-13T14:43:19;5.85;;;1.80;;
27223;SDS011;14965;50.660;13.226;2023-07-13T14:45:46;4.75;;;1.90;;